createdAt,value
2018-02-04T00:00:17.186Z,2.53
2018-02-04T00:00:57.748Z,2.5
2018-02-04T00:01:38.594Z,2.5
2018-02-04T00:02:19.136Z,2.56
2018-02-04T00:02:59.695Z,2.6
2018-02-04T00:03:40.254Z,2.61
2018-02-04T00:04:20.881Z,2.57
2018-02-04T00:05:01.448Z,2.62
2018-02-04T00:05:42.072Z,2.61
2018-02-04T00:06:22.594Z,2.6
2018-02-04T00:07:03.197Z,2.62
2018-02-04T00:07:43.772Z,2.68
2018-02-04T00:08:24.345Z,2.68
2018-02-04T00:09:04.879Z,2.65
2018-02-04T00:09:45.453Z,2.65
2018-02-04T00:10:26.026Z,2.67
2018-02-04T00:11:06.629Z,2.69
2018-02-04T00:11:47.170Z,2.77
2018-02-04T00:12:27.731Z,2.74
2018-02-04T00:13:08.302Z,2.71
2018-02-04T00:13:48.870Z,2.72
2018-02-04T00:14:29.477Z,2.72
2018-02-04T00:15:10.027Z,2.67
2018-02-04T00:15:50.592Z,2.75
2018-02-04T00:16:31.151Z,2.75
2018-02-04T00:17:12.083Z,2.74
2018-02-04T00:17:52.657Z,2.72
2018-02-04T00:18:33.241Z,2.8
2018-02-04T00:19:13.807Z,2.68
2018-02-04T00:19:54.397Z,2.79
2018-02-04T00:20:34.953Z,2.69
2018-02-04T00:21:15.542Z,2.69
2018-02-04T00:21:56.163Z,2.74
2018-02-04T00:22:36.686Z,2.75
2018-02-04T00:23:17.235Z,2.64
2018-02-04T00:23:57.800Z,2.61
2018-02-04T00:24:38.361Z,2.69
2018-02-04T00:25:18.901Z,2.65
2018-02-04T00:25:59.510Z,2.67
2018-02-04T00:26:40.029Z,2.64
2018-02-04T00:27:20.603Z,2.67
2018-02-04T00:28:01.138Z,2.6
2018-02-04T00:28:41.684Z,2.6
2018-02-04T00:29:22.263Z,2.69
2018-02-04T00:30:02.809Z,2.69
2018-02-04T00:30:43.383Z,2.62
2018-02-04T00:31:23.942Z,2.68
2018-02-04T00:32:04.492Z,2.68
2018-02-04T00:32:45.018Z,2.65
2018-02-04T00:33:25.584Z,2.67
2018-02-04T00:34:06.138Z,2.69
2018-02-04T00:34:46.690Z,2.65
2018-02-04T00:35:27.217Z,2.62
2018-02-04T00:36:07.798Z,2.68
2018-02-04T00:36:48.373Z,2.79
2018-02-04T00:37:28.966Z,2.68
2018-02-04T00:38:09.489Z,2.69
2018-02-04T00:38:50.062Z,2.71
2018-02-04T00:39:30.598Z,2.71
2018-02-04T00:40:11.145Z,2.64
2018-02-04T00:40:51.684Z,2.72
2018-02-04T00:41:32.222Z,2.74
2018-02-04T00:42:12.776Z,2.67
2018-02-04T00:42:53.325Z,2.67
2018-02-04T00:43:33.915Z,2.68
2018-02-04T00:44:14.421Z,2.65
2018-02-04T00:44:54.982Z,2.67
2018-02-04T00:45:35.555Z,2.61
2018-02-04T00:46:16.117Z,2.6
2018-02-04T00:46:56.668Z,2.61
2018-02-04T00:47:37.229Z,2.61
2018-02-04T00:48:17.780Z,2.54
2018-02-04T00:48:58.340Z,2.62
2018-02-04T00:49:38.878Z,2.61
2018-02-04T00:50:19.472Z,2.67
2018-02-04T00:51:00.045Z,2.62
2018-02-04T00:51:40.614Z,2.57
2018-02-04T00:52:21.155Z,2.69
2018-02-04T00:53:01.733Z,2.67
2018-02-04T00:53:42.277Z,2.65
2018-02-04T00:54:22.825Z,2.65
2018-02-04T00:55:03.354Z,2.67
2018-02-04T00:55:43.932Z,2.67
2018-02-04T00:56:24.477Z,2.69
2018-02-04T00:57:05.015Z,2.61
2018-02-04T00:57:45.557Z,2.6
2018-02-04T00:58:26.115Z,2.6
2018-02-04T00:59:06.662Z,2.61
2018-02-04T00:59:47.226Z,2.61
2018-02-04T01:00:27.791Z,2.64
2018-02-04T01:01:08.365Z,2.65
2018-02-04T01:01:48.903Z,2.65
2018-02-04T01:02:29.495Z,2.61
2018-02-04T01:03:10.046Z,2.54
2018-02-04T01:03:50.622Z,2.5
2018-02-04T01:04:31.178Z,2.56
2018-02-04T01:05:11.760Z,2.56
2018-02-04T01:05:52.308Z,2.56
2018-02-04T01:06:32.897Z,2.6
2018-02-04T01:07:13.470Z,2.57
2018-02-04T01:07:54.169Z,2.51
2018-02-04T01:08:34.740Z,2.64
2018-02-04T01:09:18.237Z,2.6
2018-02-04T01:09:58.838Z,2.57
2018-02-04T01:10:39.423Z,2.56
2018-02-04T01:11:19.973Z,2.57
2018-02-04T01:12:00.576Z,2.62
2018-02-04T01:12:41.172Z,2.57
2018-02-04T01:13:21.769Z,2.53
2018-02-04T01:14:02.305Z,2.56
2018-02-04T01:14:42.875Z,2.56
2018-02-04T01:15:23.430Z,2.61
2018-02-04T01:16:03.987Z,2.5
2018-02-04T01:16:44.545Z,2.51
2018-02-04T01:17:25.106Z,2.51
2018-02-04T01:18:05.664Z,2.49
2018-02-04T01:18:46.259Z,2.46
2018-02-04T01:19:26.796Z,2.42
2018-02-04T01:20:07.361Z,2.44
2018-02-04T01:20:47.886Z,2.43
2018-02-04T01:21:28.462Z,2.51
2018-02-04T01:22:09.019Z,2.51
2018-02-04T01:22:49.601Z,2.46
2018-02-04T01:23:30.171Z,2.44
2018-02-04T01:24:10.776Z,2.44
2018-02-04T01:24:51.389Z,2.44
2018-02-04T01:25:31.947Z,2.38
2018-02-04T01:26:12.500Z,2.42
2018-02-04T01:26:53.073Z,2.43
2018-02-04T01:27:33.612Z,2.32
2018-02-04T01:28:14.159Z,2.32
2018-02-04T01:28:54.735Z,2.32
2018-02-04T01:29:35.327Z,2.33
2018-02-04T01:30:15.861Z,2.35
2018-02-04T01:30:56.393Z,2.35
2018-02-04T01:31:36.943Z,2.28
2018-02-04T01:32:17.493Z,2.36
2018-02-04T01:32:58.030Z,2.31
2018-02-04T01:33:38.584Z,2.24
2018-02-04T01:34:19.130Z,2.22
2018-02-04T01:34:59.701Z,2.22
2018-02-04T01:35:40.257Z,2.14
2018-02-04T01:36:20.825Z,2.26
2018-02-04T01:37:01.427Z,2.18
2018-02-04T01:37:41.975Z,2.26
2018-02-04T01:38:22.542Z,2.29
2018-02-04T01:39:03.173Z,2.26
2018-02-04T01:39:43.712Z,2.15
2018-02-04T01:40:24.271Z,2.26
2018-02-04T01:41:04.834Z,2.2
2018-02-04T01:41:45.417Z,2.2
2018-02-04T01:42:25.982Z,2.15
2018-02-04T01:43:06.561Z,2.25
2018-02-04T01:43:47.122Z,2.15
2018-02-04T01:44:27.691Z,2.14
2018-02-04T01:45:08.259Z,2.22
2018-02-04T01:45:48.839Z,2.13
2018-02-04T01:46:29.366Z,2.14
2018-02-04T01:47:09.918Z,2.14
2018-02-04T01:47:50.513Z,2.15
2018-02-04T01:48:31.035Z,2.13
2018-02-04T01:49:11.567Z,2.24
2018-02-04T01:49:52.123Z,2.15
2018-02-04T01:50:32.662Z,2.26
2018-02-04T01:51:13.200Z,2.13
2018-02-04T01:51:53.745Z,2.22
2018-02-04T01:52:34.321Z,2.25
2018-02-04T01:53:14.929Z,2.25
2018-02-04T01:53:55.478Z,2.08
2018-02-04T01:54:36.092Z,2.14
2018-02-04T01:55:16.646Z,2.15
2018-02-04T01:55:57.197Z,2.1
2018-02-04T01:56:37.787Z,2.22
2018-02-04T01:57:18.304Z,2.08
2018-02-04T01:57:58.877Z,2.14
2018-02-04T01:58:39.452Z,2.17
2018-02-04T01:59:19.962Z,2.14
2018-02-04T02:00:00.528Z,2.14
2018-02-04T02:00:41.085Z,2.13
2018-02-04T02:01:21.657Z,2.11
2018-02-04T02:02:02.209Z,2.13
2018-02-04T02:02:42.747Z,2.14
2018-02-04T02:03:23.358Z,2.1
2018-02-04T02:04:03.925Z,2.14
2018-02-04T02:04:44.500Z,2.15
2018-02-04T02:05:25.054Z,2.11
2018-02-04T02:06:05.624Z,2.11
2018-02-04T02:06:46.232Z,2.14
2018-02-04T02:07:26.772Z,2.11
2018-02-04T02:08:07.336Z,2.15
2018-02-04T02:08:47.872Z,2.14
2018-02-04T02:09:28.435Z,2.14
2018-02-04T02:10:09.045Z,2.14
2018-02-04T02:10:49.587Z,2.14
2018-02-04T02:11:30.124Z,2.13
2018-02-04T02:12:10.718Z,2.1
2018-02-04T02:12:51.297Z,2.1
2018-02-04T02:13:31.860Z,2.17
2018-02-04T02:14:12.405Z,2.15
2018-02-04T02:14:52.946Z,2.13
2018-02-04T02:15:33.521Z,2.07
2018-02-04T02:16:14.081Z,2.13
2018-02-04T02:16:54.625Z,2.14
2018-02-04T02:17:35.157Z,2.14
2018-02-04T02:18:15.730Z,2.14
2018-02-04T02:18:56.280Z,2.11
2018-02-04T02:19:36.844Z,2.14
2018-02-04T02:20:17.391Z,2.1
2018-02-04T02:20:57.944Z,2.07
2018-02-04T02:21:38.493Z,2.2
2018-02-04T02:22:19.072Z,2.2
2018-02-04T02:22:59.673Z,2.14
2018-02-04T02:23:40.240Z,2.11
2018-02-04T02:24:20.817Z,2.26
2018-02-04T02:25:01.364Z,2.17
2018-02-04T02:25:41.908Z,2.14
2018-02-04T02:26:22.496Z,2.15
2018-02-04T02:27:03.055Z,2.18
2018-02-04T02:27:43.630Z,2.25
2018-02-04T02:28:24.222Z,2.25
2018-02-04T02:29:04.782Z,2.24
2018-02-04T02:29:45.326Z,2.22
2018-02-04T02:30:25.906Z,2.22
2018-02-04T02:31:06.473Z,2.24
2018-02-04T02:31:47.085Z,2.24
2018-02-04T02:32:27.640Z,2.24
2018-02-04T02:33:08.196Z,2.22
2018-02-04T02:33:48.779Z,2.2
2018-02-04T02:34:29.334Z,2.25
2018-02-04T02:35:09.922Z,2.25
2018-02-04T02:35:50.477Z,2.17
2018-02-04T02:36:31.032Z,2.24
2018-02-04T02:37:11.579Z,2.24
2018-02-04T02:37:52.127Z,2.29
2018-02-04T02:38:32.719Z,2.22
2018-02-04T02:39:13.280Z,2.17
2018-02-04T02:39:53.818Z,2.24
2018-02-04T02:40:34.395Z,2.2
2018-02-04T02:41:14.924Z,2.18
2018-02-04T02:41:55.473Z,2.25
2018-02-04T02:42:36.003Z,2.25
2018-02-04T02:43:16.578Z,2.24
2018-02-04T02:43:57.155Z,2.24
2018-02-04T02:44:37.707Z,2.24
2018-02-04T02:45:18.274Z,2.2
2018-02-04T02:45:58.825Z,2.28
2018-02-04T02:46:39.414Z,2.26
2018-02-04T02:47:19.998Z,2.11
2018-02-04T02:48:00.651Z,2.17
2018-02-04T02:48:41.150Z,2.25
2018-02-04T02:49:21.687Z,2.15
2018-02-04T02:50:02.254Z,2.29
2018-02-04T02:50:42.818Z,2.15
2018-02-04T02:51:23.409Z,2.14
2018-02-04T02:52:03.976Z,2.26
2018-02-04T02:52:44.595Z,2.14
2018-02-04T02:53:25.171Z,2.14
2018-02-04T02:54:05.710Z,2.15
2018-02-04T02:54:46.270Z,2.18
2018-02-04T02:55:26.815Z,2.17
2018-02-04T02:56:07.382Z,2.24
2018-02-04T02:56:47.920Z,2.26
2018-02-04T02:57:28.515Z,2.18
2018-02-04T02:58:09.083Z,2.2
2018-02-04T02:58:49.639Z,2.14
2018-02-04T02:59:30.214Z,2.14
2018-02-04T03:00:10.786Z,2.15
2018-02-04T03:00:51.345Z,2.11
2018-02-04T03:01:31.902Z,2.07
2018-02-04T03:02:12.441Z,2.11
2018-02-04T03:02:53.006Z,2.22
2018-02-04T03:03:33.552Z,2.2
2018-02-04T03:04:14.114Z,2.08
2018-02-04T03:04:54.661Z,2.11
2018-02-04T03:05:35.235Z,2.1
2018-02-04T03:06:15.784Z,2.07
2018-02-04T03:06:56.401Z,2.13
2018-02-04T03:07:36.956Z,2.14
2018-02-04T03:08:17.521Z,2.1
2018-02-04T03:08:58.080Z,2.11
2018-02-04T03:09:38.646Z,2.07
2018-02-04T03:10:19.211Z,2.04
2018-02-04T03:10:59.766Z,2.07
2018-02-04T03:11:40.301Z,2.15
2018-02-04T03:12:20.839Z,2.07
2018-02-04T03:13:01.388Z,1.94
2018-02-04T03:13:41.929Z,1.94
2018-02-04T03:14:22.477Z,2.02
2018-02-04T03:15:03.033Z,1.99
2018-02-04T03:15:43.588Z,2.02
2018-02-04T03:16:24.136Z,1.99
2018-02-04T03:17:04.692Z,1.95
2018-02-04T03:17:45.222Z,1.91
2018-02-04T03:18:25.763Z,1.95
2018-02-04T03:19:06.315Z,1.95
2018-02-04T03:19:46.865Z,1.94
2018-02-04T03:20:27.419Z,1.94
2018-02-04T03:21:07.976Z,1.88
2018-02-04T03:21:48.528Z,1.89
2018-02-04T03:22:29.082Z,1.81
2018-02-04T03:23:09.668Z,1.91
2018-02-04T03:23:50.202Z,1.84
2018-02-04T03:24:30.744Z,1.84
2018-02-04T03:25:11.340Z,1.84
2018-02-04T03:25:51.879Z,1.77
2018-02-04T03:26:32.435Z,1.74
2018-02-04T03:27:13.005Z,1.78
2018-02-04T03:27:53.582Z,1.81
2018-02-04T03:28:34.137Z,1.73
2018-02-04T03:29:14.712Z,1.8
2018-02-04T03:29:55.285Z,1.8
2018-02-04T03:30:35.845Z,1.71
2018-02-04T03:31:16.409Z,1.71
2018-02-04T03:31:56.952Z,1.77
2018-02-04T03:32:37.487Z,1.76
2018-02-04T03:33:18.050Z,1.71
2018-02-04T03:33:58.624Z,1.68
2018-02-04T03:34:39.205Z,1.7
2018-02-04T03:35:19.785Z,1.73
2018-02-04T03:36:00.339Z,1.76
2018-02-04T03:36:40.909Z,1.74
2018-02-04T03:37:21.492Z,1.7
2018-02-04T03:38:02.027Z,1.76
2018-02-04T03:38:42.603Z,1.62
2018-02-04T03:39:23.141Z,1.6
2018-02-04T03:40:03.686Z,1.71
2018-02-04T03:40:44.256Z,1.59
2018-02-04T03:41:24.848Z,1.59
2018-02-04T03:42:05.427Z,1.58
2018-02-04T03:42:45.979Z,1.58
2018-02-04T03:43:26.534Z,1.56
2018-02-04T03:44:07.087Z,1.6
2018-02-04T03:44:47.653Z,1.63
2018-02-04T03:45:28.215Z,1.6
2018-02-04T03:46:08.787Z,1.63
2018-02-04T03:46:49.373Z,1.56
2018-02-04T03:47:29.980Z,1.48
2018-02-04T03:48:10.544Z,1.56
2018-02-04T03:48:51.135Z,1.49
2018-02-04T03:49:31.713Z,1.55
2018-02-04T03:50:12.281Z,1.53
2018-02-04T03:50:52.839Z,1.6
2018-02-04T03:51:33.393Z,1.49
2018-02-04T03:52:13.957Z,1.49
2018-02-04T03:52:54.554Z,1.52
2018-02-04T03:53:35.127Z,1.59
2018-02-04T03:54:15.717Z,1.53
2018-02-04T03:54:56.275Z,1.56
2018-02-04T03:55:36.811Z,1.56
2018-02-04T03:56:17.371Z,1.52
2018-02-04T03:56:57.940Z,1.6
2018-02-04T03:57:38.504Z,1.66
2018-02-04T03:58:19.079Z,1.62
2018-02-04T03:58:59.634Z,1.66
2018-02-04T03:59:40.208Z,1.56
2018-02-04T04:00:20.748Z,1.66
2018-02-04T04:01:01.346Z,1.68
2018-02-04T04:01:41.909Z,1.55
2018-02-04T04:02:22.467Z,1.66
2018-02-04T04:03:03.069Z,1.49
2018-02-04T04:03:43.623Z,1.63
2018-02-04T04:04:24.203Z,1.66
2018-02-04T04:05:04.787Z,1.62
2018-02-04T04:05:45.369Z,1.67
2018-02-04T04:06:25.916Z,1.56
2018-02-04T04:07:06.491Z,1.63
2018-02-04T04:07:47.070Z,1.66
2018-02-04T04:08:27.622Z,1.68
2018-02-04T04:09:08.190Z,1.62
2018-02-04T04:09:48.758Z,1.58
2018-02-04T04:10:29.284Z,1.68
2018-02-04T04:11:09.830Z,1.58
2018-02-04T04:11:50.386Z,1.62
2018-02-04T04:12:30.949Z,1.58
2018-02-04T04:13:11.491Z,1.59
2018-02-04T04:13:52.069Z,1.63
2018-02-04T04:14:32.676Z,1.6
2018-02-04T04:15:13.246Z,1.68
2018-02-04T04:15:53.793Z,1.58
2018-02-04T04:16:34.354Z,1.53
2018-02-04T04:17:14.902Z,1.62
2018-02-04T04:17:55.449Z,1.67
2018-02-04T04:18:36.051Z,1.55
2018-02-04T04:19:16.672Z,1.62
2018-02-04T04:19:57.223Z,1.52
2018-02-04T04:20:37.768Z,1.49
2018-02-04T04:21:18.340Z,1.59
2018-02-04T04:21:58.888Z,1.52
2018-02-04T04:22:39.448Z,1.52
2018-02-04T04:23:19.999Z,1.53
2018-02-04T04:24:00.554Z,1.55
2018-02-04T04:24:41.094Z,1.56
2018-02-04T04:25:21.662Z,1.52
2018-02-04T04:26:02.210Z,1.48
2018-02-04T04:26:42.841Z,1.5
2018-02-04T04:27:23.392Z,1.56
2018-02-04T04:28:03.930Z,1.58
2018-02-04T04:28:44.480Z,1.53
2018-02-04T04:29:25.080Z,1.49
2018-02-04T04:30:05.618Z,1.49
2018-02-04T04:30:46.176Z,1.52
2018-02-04T04:31:26.732Z,1.53
2018-02-04T04:32:07.278Z,1.52
2018-02-04T04:32:47.825Z,1.5
2018-02-04T04:33:28.412Z,1.53
2018-02-04T04:34:08.983Z,1.53
2018-02-04T04:34:49.574Z,1.44
2018-02-04T04:35:30.145Z,1.55
2018-02-04T04:36:10.727Z,1.55
2018-02-04T04:36:51.317Z,1.52
2018-02-04T04:37:31.922Z,1.53
2018-02-04T04:38:12.515Z,1.49
2018-02-04T04:38:53.063Z,1.58
2018-02-04T04:39:33.605Z,1.56
2018-02-04T04:40:14.170Z,1.53
2018-02-04T04:40:54.751Z,1.56
2018-02-04T04:41:35.290Z,1.49
2018-02-04T04:42:15.823Z,1.48
2018-02-04T04:42:56.373Z,1.45
2018-02-04T04:43:36.937Z,1.55
2018-02-04T04:44:17.458Z,1.5
2018-02-04T04:44:58.071Z,1.4
2018-02-04T04:45:38.638Z,1.44
2018-02-04T04:46:19.235Z,1.49
2018-02-04T04:46:59.813Z,1.49
2018-02-04T04:47:40.371Z,1.38
2018-02-04T04:48:20.921Z,1.41
2018-02-04T04:49:01.467Z,1.44
2018-02-04T04:49:42.044Z,1.41
2018-02-04T04:50:22.607Z,1.38
2018-02-04T04:51:03.157Z,1.42
2018-02-04T04:51:43.688Z,1.37
2018-02-04T04:52:24.219Z,1.38
2018-02-04T04:53:04.790Z,1.38
2018-02-04T04:53:45.345Z,1.4
2018-02-04T04:54:25.885Z,1.41
2018-02-04T04:55:06.465Z,1.44
2018-02-04T04:55:47.020Z,1.44
2018-02-04T04:56:27.590Z,1.41
2018-02-04T04:57:08.135Z,1.48
2018-02-04T04:57:48.682Z,1.48
2018-02-04T04:58:29.226Z,1.48
2018-02-04T04:59:09.789Z,1.44
2018-02-04T04:59:50.346Z,1.41
2018-02-04T05:00:30.928Z,1.42
2018-02-04T05:01:11.500Z,1.44
2018-02-04T05:01:52.068Z,1.34
2018-02-04T05:02:32.718Z,1.41
2018-02-04T05:03:13.263Z,1.38
2018-02-04T05:03:53.835Z,1.4
2018-02-04T05:04:34.433Z,1.31
2018-02-04T05:05:15.047Z,1.31
2018-02-04T05:05:55.646Z,1.31
2018-02-04T05:06:36.189Z,1.35
2018-02-04T05:07:16.751Z,1.34
2018-02-04T05:07:57.302Z,1.34
2018-02-04T05:08:37.868Z,1.28
2018-02-04T05:09:18.493Z,1.35
2018-02-04T05:09:59.107Z,1.31
2018-02-04T05:10:39.637Z,1.3
2018-02-04T05:11:20.206Z,1.31
2018-02-04T05:12:00.759Z,1.31
2018-02-04T05:12:41.319Z,1.35
2018-02-04T05:13:21.909Z,1.35
2018-02-04T05:14:02.509Z,1.32
2018-02-04T05:14:43.079Z,1.3
2018-02-04T05:15:23.632Z,1.31
2018-02-04T05:16:04.214Z,1.26
2018-02-04T05:16:44.776Z,1.3
2018-02-04T05:17:25.321Z,1.26
2018-02-04T05:18:05.894Z,1.3
2018-02-04T05:18:46.455Z,1.3
2018-02-04T05:19:26.991Z,1.3
2018-02-04T05:20:07.533Z,1.28
2018-02-04T05:20:48.079Z,1.26
2018-02-04T05:21:28.647Z,1.3
2018-02-04T05:22:09.208Z,1.28
2018-02-04T05:22:49.721Z,1.22
2018-02-04T05:23:30.287Z,1.28
2018-02-04T05:24:10.823Z,1.26
2018-02-04T05:24:51.363Z,1.22
2018-02-04T05:25:31.941Z,1.24
2018-02-04T05:26:12.487Z,1.26
2018-02-04T05:26:53.033Z,1.26
2018-02-04T05:27:33.589Z,1.28
2018-02-04T05:28:14.128Z,1.3
2018-02-04T05:28:54.715Z,1.3
2018-02-04T05:29:35.293Z,1.26
2018-02-04T05:30:15.890Z,1.34
2018-02-04T05:30:56.432Z,1.2
2018-02-04T05:31:36.975Z,1.31
2018-02-04T05:32:17.501Z,1.24
2018-02-04T05:32:58.091Z,1.31
2018-02-04T05:33:38.632Z,1.31
2018-02-04T05:34:19.214Z,1.24
2018-02-04T05:34:59.814Z,1.3
2018-02-04T05:35:40.391Z,1.28
2018-02-04T05:36:20.969Z,1.34
2018-02-04T05:37:01.504Z,1.3
2018-02-04T05:37:42.086Z,1.34
2018-02-04T05:38:22.649Z,1.34
2018-02-04T05:39:03.212Z,1.34
2018-02-04T05:39:43.736Z,1.31
2018-02-04T05:40:24.292Z,1.26
2018-02-04T05:41:04.909Z,1.24
2018-02-04T05:41:45.425Z,1.28
2018-02-04T05:42:26.092Z,1.28
2018-02-04T05:43:06.654Z,1.32
2018-02-04T05:43:47.243Z,1.3
2018-02-04T05:44:27.788Z,1.31
2018-02-04T05:45:08.306Z,1.28
2018-02-04T05:45:48.900Z,1.32
2018-02-04T05:46:29.470Z,1.24
2018-02-04T05:47:10.116Z,1.23
2018-02-04T05:47:50.717Z,1.3
2018-02-04T05:48:31.236Z,1.32
2018-02-04T05:49:11.796Z,1.26
2018-02-04T05:49:52.369Z,1.19
2018-02-04T05:50:32.976Z,1.35
2018-02-04T05:51:13.503Z,1.31
2018-02-04T05:51:54.051Z,1.24
2018-02-04T05:52:34.619Z,1.28
2018-02-04T05:53:15.148Z,1.31
2018-02-04T05:53:55.706Z,1.3
2018-02-04T05:54:36.284Z,1.34
2018-02-04T05:55:16.871Z,1.34
2018-02-04T05:55:57.463Z,1.23
2018-02-04T05:56:37.986Z,1.24
2018-02-04T05:57:18.582Z,1.19
2018-02-04T05:57:59.129Z,1.2
2018-02-04T05:58:39.685Z,1.28
2018-02-04T05:59:20.242Z,1.22
2018-02-04T06:00:00.809Z,1.24
2018-02-04T06:00:41.359Z,1.2
2018-02-04T06:01:21.934Z,1.19
2018-02-04T06:02:02.462Z,1.22
2018-02-04T06:02:43.011Z,1.28
2018-02-04T06:03:23.606Z,1.17
2018-02-04T06:04:04.187Z,1.32
2018-02-04T06:04:44.739Z,1.3
2018-02-04T06:05:25.316Z,1.19
2018-02-04T06:06:05.899Z,1.22
2018-02-04T06:06:46.436Z,1.24
2018-02-04T06:07:27.004Z,1.31
2018-02-04T06:08:07.551Z,1.2
2018-02-04T06:08:48.091Z,1.22
2018-02-04T06:09:28.642Z,1.24
2018-02-04T06:10:09.179Z,1.24
2018-02-04T06:10:49.754Z,1.3
2018-02-04T06:11:30.282Z,1.28
2018-02-04T06:12:10.830Z,1.31
2018-02-04T06:12:51.386Z,1.34
2018-02-04T06:13:31.917Z,1.24
2018-02-04T06:14:12.458Z,1.26
2018-02-04T06:14:53.054Z,1.34
2018-02-04T06:15:33.567Z,1.32
2018-02-04T06:16:14.121Z,1.28
2018-02-04T06:16:54.664Z,1.3
2018-02-04T06:17:35.364Z,1.34
2018-02-04T06:18:15.925Z,1.32
2018-02-04T06:18:56.514Z,1.34
2018-02-04T06:19:37.104Z,1.31
2018-02-04T06:20:17.618Z,1.3
2018-02-04T06:20:58.193Z,1.26
2018-02-04T06:21:38.750Z,1.24
2018-02-04T06:22:19.323Z,1.31
2018-02-04T06:22:59.948Z,1.31
2018-02-04T06:23:40.481Z,1.32
2018-02-04T06:24:21.054Z,1.22
2018-02-04T06:25:01.609Z,1.3
2018-02-04T06:25:42.156Z,1.35
2018-02-04T06:26:22.702Z,1.3
2018-02-04T06:27:03.256Z,1.34
2018-02-04T06:27:43.835Z,1.31
2018-02-04T06:28:24.375Z,1.32
2018-02-04T06:29:04.939Z,1.34
2018-02-04T06:29:45.480Z,1.35
2018-02-04T06:30:26.077Z,1.28
2018-02-04T06:31:06.631Z,1.3
2018-02-04T06:31:47.189Z,1.34
2018-02-04T06:32:27.746Z,1.3
2018-02-04T06:33:08.321Z,1.26
2018-02-04T06:33:48.871Z,1.35
2018-02-04T06:34:29.608Z,1.31
2018-02-04T06:35:10.353Z,1.31
2018-02-04T06:35:50.891Z,1.3
2018-02-04T06:36:31.494Z,1.31
2018-02-04T06:37:12.043Z,1.32
2018-02-04T06:37:52.581Z,1.24
2018-02-04T06:38:33.189Z,1.31
2018-02-04T06:39:13.763Z,1.26
2018-02-04T06:39:54.369Z,1.32
2018-02-04T06:40:34.978Z,1.31
2018-02-04T06:41:15.512Z,1.35
2018-02-04T06:41:56.200Z,1.35
2018-02-04T06:42:36.809Z,1.35
2018-02-04T06:43:17.366Z,1.34
2018-02-04T06:43:58.028Z,1.42
2018-02-04T06:44:38.532Z,1.4
2018-02-04T06:45:19.140Z,1.41
2018-02-04T06:45:59.863Z,1.4
2018-02-04T06:46:40.481Z,1.4
2018-02-04T06:47:21.030Z,1.41
2018-02-04T06:48:01.780Z,1.34
2018-02-04T06:48:42.317Z,1.4
2018-02-04T06:49:22.879Z,1.49
2018-02-04T06:50:03.582Z,1.42
2018-02-04T06:50:44.211Z,1.45
2018-02-04T06:51:24.764Z,1.45
2018-02-04T06:52:05.326Z,1.48
2018-02-04T06:52:45.921Z,1.45
2018-02-04T06:53:26.553Z,1.41
2018-02-04T06:54:07.098Z,1.42
2018-02-04T06:54:47.696Z,1.42
2018-02-04T06:55:28.268Z,1.45
2018-02-04T06:56:08.891Z,1.48
2018-02-04T06:56:49.424Z,1.48
2018-02-04T06:57:29.995Z,1.49
2018-02-04T06:58:10.556Z,1.52
2018-02-04T06:58:51.126Z,1.49
2018-02-04T06:59:31.662Z,1.48
2018-02-04T07:00:12.211Z,1.52
2018-02-04T07:00:52.750Z,1.48
2018-02-04T07:01:33.274Z,1.45
2018-02-04T07:02:13.824Z,1.48
2018-02-04T07:02:54.413Z,1.42
2018-02-04T07:03:34.938Z,1.4
2018-02-04T07:04:15.544Z,1.45
2018-02-04T07:04:56.133Z,1.45
2018-02-04T07:05:36.687Z,1.35
2018-02-04T07:06:17.236Z,1.38
2018-02-04T07:06:57.916Z,1.4
2018-02-04T07:07:38.445Z,1.41
2018-02-04T07:08:19.017Z,1.41
2018-02-04T07:08:59.565Z,1.4
2018-02-04T07:09:40.143Z,1.26
2018-02-04T07:10:20.657Z,1.32
2018-02-04T07:11:01.258Z,1.34
2018-02-04T07:11:41.819Z,1.28
2018-02-04T07:12:22.381Z,1.3
2018-02-04T07:13:02.944Z,1.32
2018-02-04T07:13:43.492Z,1.34
2018-02-04T07:14:24.047Z,1.34
2018-02-04T07:15:04.669Z,1.32
2018-02-04T07:15:45.195Z,1.24
2018-02-04T07:16:25.747Z,1.3
2018-02-04T07:17:06.301Z,1.3
2018-02-04T07:17:46.855Z,1.31
2018-02-04T07:18:27.428Z,1.26
2018-02-04T07:19:08.041Z,1.28
2018-02-04T07:19:48.534Z,1.31
2018-02-04T07:20:29.100Z,1.32
2018-02-04T07:21:09.669Z,1.28
2018-02-04T07:21:50.294Z,1.28
2018-02-04T07:22:30.859Z,1.3
2018-02-04T07:23:11.463Z,1.28
2018-02-04T07:23:51.995Z,1.34
2018-02-04T07:24:32.551Z,1.32
2018-02-04T07:25:13.095Z,1.28
2018-02-04T07:25:53.649Z,1.3
2018-02-04T07:26:34.204Z,1.37
2018-02-04T07:27:14.752Z,1.38
2018-02-04T07:27:55.329Z,1.37
2018-02-04T07:28:35.859Z,1.37
2018-02-04T07:29:16.408Z,1.34
2018-02-04T07:29:56.972Z,1.34
2018-02-04T07:30:37.511Z,1.35
2018-02-04T07:31:18.057Z,1.23
2018-02-04T07:31:58.639Z,1.24
2018-02-04T07:32:39.198Z,1.28
2018-02-04T07:33:19.776Z,1.28
2018-02-04T07:34:00.347Z,1.23
2018-02-04T07:34:40.914Z,1.17
2018-02-04T07:35:21.467Z,1.26
2018-02-04T07:36:02.007Z,1.28
2018-02-04T07:36:42.573Z,1.17
2018-02-04T07:37:23.126Z,1.3
2018-02-04T07:38:03.686Z,1.32
2018-02-04T07:38:44.232Z,1.23
2018-02-04T07:39:24.797Z,1.28
2018-02-04T07:40:05.361Z,1.24
2018-02-04T07:40:45.948Z,1.32
2018-02-04T07:41:26.517Z,1.17
2018-02-04T07:42:07.086Z,1.17
2018-02-04T07:42:47.639Z,1.31
2018-02-04T07:43:28.188Z,1.22
2018-02-04T07:44:08.779Z,1.2
2018-02-04T07:44:49.318Z,1.2
2018-02-04T07:45:29.932Z,1.22
2018-02-04T07:46:10.519Z,1.2
2018-02-04T07:46:51.095Z,1.3
2018-02-04T07:47:31.657Z,1.28
2018-02-04T07:48:12.204Z,1.17
2018-02-04T07:48:52.794Z,1.28
2018-02-04T07:49:33.370Z,1.3
2018-02-04T07:50:13.930Z,1.28
2018-02-04T07:50:54.486Z,1.24
2018-02-04T07:51:35.044Z,1.28
2018-02-04T07:52:15.595Z,1.31
2018-02-04T07:52:56.141Z,1.2
2018-02-04T07:53:36.702Z,1.22
2018-02-04T07:54:17.242Z,1.32
2018-02-04T07:54:57.815Z,1.19
2018-02-04T07:55:38.343Z,1.28
2018-02-04T07:56:18.889Z,1.28
2018-02-04T07:56:59.460Z,1.2
2018-02-04T07:57:40.010Z,1.28
2018-02-04T07:58:20.569Z,1.2
2018-02-04T07:59:01.143Z,1.2
2018-02-04T07:59:41.745Z,1.26
2018-02-04T08:00:22.275Z,1.24
2018-02-04T08:01:02.829Z,1.35
2018-02-04T08:01:43.414Z,1.31
2018-02-04T08:02:23.968Z,1.31
2018-02-04T08:03:04.525Z,1.34
2018-02-04T08:03:45.083Z,1.3
2018-02-04T08:04:25.701Z,1.26
2018-02-04T08:05:06.260Z,1.31
2018-02-04T08:05:46.820Z,1.31
2018-02-04T08:06:27.362Z,1.3
2018-02-04T08:07:07.925Z,1.3
2018-02-04T08:07:48.462Z,1.28
2018-02-04T08:08:29.023Z,1.26
2018-02-04T08:09:09.575Z,1.28
2018-02-04T08:09:50.114Z,1.28
2018-02-04T08:10:30.668Z,1.24
2018-02-04T08:11:11.267Z,1.31
2018-02-04T08:11:51.951Z,1.34
2018-02-04T08:12:32.571Z,1.38
2018-02-04T08:13:13.142Z,1.31
2018-02-04T08:13:53.713Z,1.35
2018-02-04T08:14:34.267Z,1.31
2018-02-04T08:15:14.817Z,1.32
2018-02-04T08:15:55.532Z,1.32
2018-02-04T08:16:36.159Z,1.37
2018-02-04T08:17:17.082Z,1.42
2018-02-04T08:17:57.761Z,1.37
2018-02-04T08:18:38.624Z,1.34
2018-02-04T08:19:19.265Z,1.31
2018-02-04T08:19:59.925Z,1.38
2018-02-04T08:20:40.478Z,1.37
2018-02-04T08:21:21.119Z,1.41
2018-02-04T08:22:01.676Z,1.44
2018-02-04T08:22:42.211Z,1.42
2018-02-04T08:23:22.778Z,1.35
2018-02-04T08:24:03.344Z,1.41
2018-02-04T08:24:43.905Z,1.44
2018-02-04T08:25:24.439Z,1.42
2018-02-04T08:26:05.010Z,1.45
2018-02-04T08:26:45.600Z,1.38
2018-02-04T08:27:26.146Z,1.41
2018-02-04T08:28:06.679Z,1.42
2018-02-04T08:28:47.225Z,1.4
2018-02-04T08:29:27.762Z,1.48
2018-02-04T08:30:08.315Z,1.45
2018-02-04T08:30:48.882Z,1.5
2018-02-04T08:31:29.442Z,1.52
2018-02-04T08:32:10.046Z,1.55
2018-02-04T08:32:50.566Z,1.49
2018-02-04T08:33:31.187Z,1.6
2018-02-04T08:34:11.776Z,1.63
2018-02-04T08:34:52.342Z,1.76
2018-02-04T08:35:32.888Z,1.78
2018-02-04T08:36:14.023Z,1.94
2018-02-04T08:36:54.729Z,1.94
2018-02-04T08:37:35.254Z,2.17
2018-02-04T08:38:15.844Z,2.2
2018-02-04T08:38:56.717Z,2.44
2018-02-04T08:39:37.433Z,2.68
2018-02-04T08:40:18.208Z,2.83
2018-02-04T08:40:59.202Z,3.08
2018-02-04T08:41:39.816Z,3.29
2018-02-04T08:42:20.610Z,3.63
2018-02-04T08:43:01.244Z,3.96
2018-02-04T08:43:41.986Z,4.35
2018-02-04T08:44:22.553Z,4.66
2018-02-04T08:45:03.144Z,5
2018-02-04T08:45:43.667Z,5.41
2018-02-04T08:46:25.034Z,5.71
2018-02-04T08:47:04.788Z,6.07
2018-02-04T08:47:45.363Z,6.33
2018-02-04T08:48:25.942Z,6.62
2018-02-04T08:49:06.480Z,6.75
2018-02-04T08:49:47.038Z,6.95
2018-02-04T08:50:27.645Z,7.2
2018-02-04T08:51:08.443Z,7.17
2018-02-04T08:51:49.154Z,7.36
2018-02-04T08:52:29.758Z,7.39
2018-02-04T08:53:10.301Z,7.57
2018-02-04T08:53:51.183Z,7.57
2018-02-04T08:54:31.745Z,7.63
2018-02-04T08:55:12.347Z,7.72
2018-02-04T08:55:52.921Z,7.79
2018-02-04T08:56:33.461Z,7.83
2018-02-04T08:57:14.024Z,7.98
2018-02-04T08:57:54.668Z,8
2018-02-04T08:58:35.227Z,8.08
2018-02-04T08:59:15.862Z,8.09
2018-02-04T08:59:56.435Z,8.05
2018-02-04T09:00:37.027Z,8.05
2018-02-04T09:01:17.578Z,8.03
2018-02-04T09:01:58.140Z,8.08
2018-02-04T09:02:38.738Z,7.97